• Join FlightAware (Why Join?)
  • Login
  • US Flag 
10:17AM EDT


 

Airport Tracker/Info


-or-


 

Live Flight TrackerFlight Track Log ✈ JZA7798 ✈ 25-Aug-2013 ✈ CYAM - CYYZ

Flight Track Log - Related Links

Times and Time Zones

All times are in EDT time to prevent confusion due to time zone crossing. See the JZA7798 flight status page for this flight to view local times or setup timezone preferences in your user account.

Time Position Orientation Groundspeed Altitude Reporting Facility
EDT Latitude Longitude Course Direction KTS MPH feet Rate Location/Type
08:48PM 46.4519 -84.3689 108° East 163 188 4,200  Level Minneapolis Center
08:49PM 46.4375 -84.3058 108° East 164 189 5,700 1,500 Climbing Minneapolis Center
08:50PM 46.4136 -84.2400 118° Southeast 171 197 7,300 1,500 Climbing Minneapolis Center
08:51PM 46.3828 -84.1825 128° Southeast 181 208 8,800 1,200 Climbing Minneapolis Center
08:52PM 46.3472 -84.1158 128° Southeast 194 223 9,900 1,080 Climbing Minneapolis Center
08:53PM 46.3086 -84.0433 128° Southeast 222 255 11,100 1,200 Climbing Minneapolis Center
08:54PM 46.2672 -83.9606 126° Southeast 234 269 12,500 1,320 Climbing Minneapolis Center
08:55PM 46.2239 -83.8789 127° Southeast 239 275 13,900 1,200 Climbing Minneapolis Center
08:56PM 46.1861 -83.8033 126° Southeast 235 270 15,000 1,080 Climbing Minneapolis Center
08:57PM 46.1500 -83.7167 121° Southeast 230 265 15,900 1,020 Climbing Toronto Center
08:58PM 46.1000 -83.6500 137° Southeast 240 276 16,900 960 Climbing Toronto Center
08:59PM 46.0667 -83.5667 120° Southeast 240 276 17,900 960 Climbing Toronto Center
09:00PM 46.0167 -83.5000 137° Southeast 240 276 18,900 900 Climbing Toronto Center
09:01PM 45.9833 -83.4167 120° Southeast 240 276 19,800 840 Climbing Toronto Center
09:02PM 45.9333 -83.3500 137° Southeast 240 276 20,600 720 Climbing Toronto Center
09:03PM 45.9000 -83.2667 120° Southeast 240 276 21,300 600 Climbing Toronto Center
09:04PM 45.8667 -83.2000 126° Southeast 250 288 21,900 600 Climbing Toronto Center
09:05PM 45.8167 -83.1333 137° Southeast 250 288 22,600 660 Climbing Toronto Center
09:06PM 45.7667 -83.0333 126° Southeast 250 288 23,300 600 Climbing Toronto Center
09:07PM 45.7333 -82.9833 134° Southeast 240 276 23,900 540 Climbing Toronto Center
09:08PM 45.6833 -82.9000 131° Southeast 240 276 24,400 480 Climbing Toronto Center
09:09PM 45.6500 -82.8000 115° Southeast 240 276 24,900 300 Climbing Toronto Center
09:10PM 45.6000 -82.7333 137° Southeast 250 288 25,000  Climbing Toronto Center
09:11PM 45.5667 -82.6500 120° Southeast 270 311 25,000  Level Toronto Center
09:12PM 45.5167 -82.5667 131° Southeast 280 322 25,000  Level Toronto Center
09:13PM 45.4667 -82.4667 125° Southeast 290 334 25,000  Level Toronto Center
09:14PM 45.4167 -82.3833 131° Southeast 290 334 25,000  Level Toronto Center
09:15PM 45.3667 -82.2833 125° Southeast 290 334 25,000  Level Toronto Center
09:16PM 45.3167 -82.2000 130° Southeast 290 334 25,000  Level Toronto Center
09:17PM 45.2667 -82.1167 130° Southeast 280 322 25,000  Level Toronto Center
09:18PM 45.2000 -82.0167 133° Southeast 300 345 25,000  Level Toronto Center
09:19PM 45.1667 -81.9333 120° Southeast 300 345 25,000  Level Toronto Center
09:20PM 45.1167 -81.8333 125° Southeast 300 345 25,000  Level Toronto Center
09:21PM 45.0667 -81.7333 125° Southeast 300 345 25,000  Level Toronto Center
09:22PM 45.0167 -81.6667 137° Southeast 310 357 25,000 -180 Level Toronto Center
09:23PM 44.9500 -81.5333 125° Southeast 310 357 24,700 -660 Descending Toronto Center
09:24PM 44.9000 -81.4500 130° Southeast 320 368 23,700 -1,020 Descending Toronto Center
09:25PM 44.8333 -81.3500 133° Southeast 340 391 22,700 -1,020 Descending Toronto Center
09:26PM 44.7667 -81.2333 129° Southeast 340 391 21,700 -1,020 Descending Toronto Center
09:27PM 44.7167 -81.1333 125° Southeast 350 403 20,700 -1,020 Descending Toronto Center
09:28PM 44.6500 -81.0333 133° Southeast 350 403 19,700 -1,380 Descending Toronto Center
09:29PM 44.5833 -80.9167 129° Southeast 350 403 18,000 -1,620 Descending Toronto Center
09:30PM 44.5500 -80.8333 119° Southeast 340 391 16,500 -1,800 Descending Toronto Center
09:31PM 44.4833 -80.7000 125° Southeast 330 380 14,500 -1,980 Descending Toronto Center
09:32PM 44.4333 -80.6167 130° Southeast 330 380 12,600 -2,040 Descending Toronto Center
09:33PM 44.3667 -80.5167 133° Southeast 330 380 10,500 -1,800 Descending Toronto Center
09:34PM 44.3167 -80.4167 125° Southeast 300 345 9,000 -780 Descending Toronto Center
09:35PM 44.2667 -80.3500 136° Southeast 280 322 9,000  Level Toronto Center
09:36PM 44.2167 -80.2833 136° Southeast 260 299 9,000  Level Toronto Center
09:37PM 44.1500 -80.2667 170° South 240 276 9,000 -60 Level Toronto Center
09:38PM 44.0833 -80.2333 160° South 230 265 8,900 -480 Descending Toronto Center
09:39PM 44.0333 -80.1667 136° Southeast 250 288 8,100 -960 Descending Toronto Center
09:40PM 43.9833 -80.1000 136° Southeast 280 322 7,000 -600 Descending Toronto Center
09:41PM 43.9667 -79.9833 101° East 280 322 7,000  Level Toronto Center
09:42PM 43.9333 -79.8833 115° Southeast 280 322 7,000  Level Toronto Center
09:43PM 43.8667 -79.8167 144° Southeast 280 322 7,000  Level Toronto Center
09:44PM 43.8167 -79.7500 136° Southeast 280 322 7,000 -660 Level Toronto Center
09:45PM 43.7833 -79.6500 115° Southeast 300 345 5,700 -1,500 Descending Toronto Center
09:46PM 43.8333 -79.5667 50° Northeast 260 299 4,100 -900 Descending Toronto Center
09:47PM 43.8333 -79.4667 90° East 230 265 4,000 -300 Descending Toronto Center
09:48PM 43.7833 -79.4667 180° South 190 219 3,600 -660 Descending Toronto Center
09:49PM 43.7667 -79.5000 235° Southwest 140 161 2,700 -840 Descending Toronto Center
09:50PM 43.7333 -79.5333 216° Southwest 130 150 2,000 -600 Descending Toronto Center
09:51PM 43.7167 -79.5667 235° Southwest 110 127 1,500 -600 Descending Toronto Center
09:52PM 43.7000 -79.6167 245° Southwest 110 127 900 -480 Descending Toronto Center
09:53PM 43.6833 -79.6333 216° Southwest 80 92 600 -300 Descending Toronto Center